Accueil
METAR-TAF:

METAR-TAF

Aéroports :

Kwajalein, Îles Marshall

latitude: 08-43N, longitude: 167-44E, altitude: 3 m

Observation

Le bulletin a été fait il y a 25 minutes, à 22:00 UTC
Vent 15 kt de est
Température 31°C
Humidité 71%
Pression 1015 hPa
Visibilité: 16.1 km
Ciel clair

METAR: PKWA 232200Z AUTO 08015KT 10SM CLR 31/25 A2997 RMK AO2 T03090247

Heure: 10:25 (22:25 UTC)

Prévision

Le bulletin a été fait il y a 4 heures et 42 minutes, à 17:43 UTC
Prévision valable du 23 à 18 UTC au 24 à 18 UTC
Vent 11 kt de est/nord-est avec des rafales jusqu'à 18 kt
Visibilité: 10 km
Nuages épars à une hauteur de 2000 ft
Nuages épars à une hauteur de 14000 ft
averses à proximité

TAF: PKWA 231743Z 2318/2418 07011G18KT P6SM VCSH SCT020 SCT140

Observations et prévisions météorologiques de plus de 4000 aéroports (messages METAR et TAF).

Les stations disponibles sont représentées par des disques jaunes et rouges sur la carte.

Passer la souris dessus pour voir le nom de la station.

Cliquer dessus pour voir les observations et prévisions météorologiques.

Pour changer de carte: cliquez sur les boutons verts avec une croix noire pour zoomer, sur le bouton vert avec un tiret pour effectuer un zoom arrière, ou sur les flèches vertes pour les cartes adjacentes.


METAR-TAF: